createdAt,value
2019-03-19T00:01:41.464Z,5.07
2019-03-19T00:04:11.489Z,5.17
2019-03-19T00:06:42.836Z,4.23
2019-03-19T00:09:13.756Z,4.87
2019-03-19T00:11:43.818Z,4.00
2019-03-19T00:14:15.187Z,4.40
2019-03-19T00:16:46.446Z,5.00
2019-03-19T00:19:16.443Z,4.53
2019-03-19T00:21:47.732Z,4.67
2019-03-19T00:24:19.052Z,5.97
2019-03-19T00:26:52.995Z,4.93
2019-03-19T00:29:25.542Z,4.17
2019-03-19T00:31:54.891Z,4.20
2019-03-19T00:34:27.828Z,5.30
2019-03-19T00:36:58.920Z,5.43
2019-03-19T00:39:30.101Z,4.73
2019-03-19T00:42:03.179Z,4.27
2019-03-19T00:44:34.943Z,4.63
2019-03-19T00:47:05.025Z,4.70
2019-03-19T00:49:35.113Z,5.30
2019-03-19T00:52:05.171Z,4.93
2019-03-19T00:54:39.889Z,4.87
2019-03-19T00:57:10.011Z,4.80
2019-03-19T00:59:40.057Z,4.50
2019-03-19T01:02:10.137Z,4.87
2019-03-19T01:04:40.267Z,4.77
2019-03-19T01:07:12.917Z,4.60
2019-03-19T01:09:46.435Z,4.43
2019-03-19T01:12:19.461Z,5.43
2019-03-19T01:14:50.467Z,4.17
2019-03-19T01:17:22.183Z,4.50
2019-03-19T01:19:56.457Z,4.33
2019-03-19T01:22:28.042Z,4.40
2019-03-19T01:24:59.613Z,3.87
2019-03-19T01:27:33.840Z,3.90
2019-03-19T01:30:05.095Z,3.80
2019-03-19T01:32:35.165Z,4.30
2019-03-19T01:35:07.777Z,3.97
2019-03-19T01:37:39.222Z,3.80
2019-03-19T01:40:14.952Z,4.33
2019-03-19T01:42:45.012Z,4.07
2019-03-19T01:45:16.013Z,4.13
2019-03-19T01:47:50.357Z,4.13
2019-03-19T01:50:20.436Z,3.80
2019-03-19T01:52:50.509Z,4.10
2019-03-19T01:55:25.504Z,4.83
2019-03-19T01:57:55.369Z,5.00
2019-03-19T02:00:25.474Z,5.00
2019-03-19T02:02:59.240Z,5.17
2019-03-19T02:05:29.056Z,4.83
2019-03-19T02:08:00.120Z,5.30
2019-03-19T02:10:33.461Z,4.90
2019-03-19T02:13:06.450Z,5.17
2019-03-19T02:15:41.760Z,5.03
2019-03-19T02:18:11.569Z,5.10
2019-03-19T02:20:46.191Z,6.00
2019-03-19T02:23:20.784Z,5.33
2019-03-19T02:25:51.938Z,6.03
2019-03-19T02:28:27.866Z,6.60
2019-03-19T02:30:59.225Z,6.73
2019-03-19T02:33:37.148Z,5.87
2019-03-19T02:36:07.261Z,5.47
2019-03-19T02:38:38.823Z,5.60
2019-03-19T02:41:09.956Z,4.97
2019-03-19T02:43:40.105Z,6.10
2019-03-19T02:46:10.273Z,6.00
2019-03-19T02:48:40.438Z,5.83
2019-03-19T02:51:15.971Z,6.50
2019-03-19T02:53:50.367Z,6.30
2019-03-19T02:56:32.759Z,6.97
2019-03-19T02:58:58.350Z,6.33
2019-03-19T03:01:30.053Z,6.60
2019-03-19T03:04:01.002Z,7.00
2019-03-19T03:06:31.096Z,7.60
2019-03-19T03:09:01.160Z,7.33
2019-03-19T03:11:31.238Z,7.23
2019-03-19T03:14:01.293Z,7.50
2019-03-19T03:16:32.420Z,7.27
2019-03-19T03:19:02.496Z,7.97
2019-03-19T03:21:34.763Z,7.07
2019-03-19T03:24:05.564Z,7.63
2019-03-19T03:26:47.382Z,7.63
2019-03-19T03:29:11.542Z,7.33
2019-03-19T03:31:43.193Z,6.90
2019-03-19T03:34:14.612Z,6.63
2019-03-19T03:36:44.700Z,8.00
2019-03-19T03:39:20.213Z,8.50
2019-03-19T03:41:50.258Z,7.50
2019-03-19T03:44:22.376Z,7.23
2019-03-19T03:46:53.796Z,7.03
2019-03-19T03:49:25.017Z,7.77
2019-03-19T03:51:56.562Z,7.37
2019-03-19T03:54:26.554Z,8.23
2019-03-19T03:57:02.560Z,8.77
2019-03-19T03:59:28.471Z,8.30
2019-03-19T04:01:58.527Z,8.70
2019-03-19T04:04:28.893Z,8.77
2019-03-19T04:06:59.424Z,10.47
2019-03-19T04:09:30.699Z,12.23
2019-03-19T04:12:02.451Z,10.50
2019-03-19T04:14:32.469Z,10.80
2019-03-19T04:17:02.609Z,9.73
2019-03-19T04:19:32.702Z,10.70
2019-03-19T04:22:02.788Z,10.03
2019-03-19T04:24:32.887Z,10.60
2019-03-19T04:27:15.278Z,11.80
2019-03-19T04:29:34.744Z,11.07
2019-03-19T04:32:04.830Z,11.40
2019-03-19T04:34:34.896Z,11.10
2019-03-19T04:37:05.005Z,10.40
2019-03-19T04:39:35.170Z,11.37
2019-03-19T04:42:05.186Z,10.90
2019-03-19T04:44:35.238Z,10.20
2019-03-19T04:47:05.318Z,11.30
2019-03-19T04:49:35.384Z,10.73
2019-03-19T04:52:05.464Z,10.80
2019-03-19T04:54:35.539Z,10.00
2019-03-19T04:57:05.675Z,10.97
2019-03-19T04:59:35.824Z,11.33
2019-03-19T05:02:07.362Z,10.10
2019-03-19T05:04:37.468Z,13.53
2019-03-19T05:07:08.416Z,12.27
2019-03-19T05:09:40.073Z,9.90
2019-03-19T05:12:11.829Z,11.53
2019-03-19T05:14:45.085Z,11.37
2019-03-19T05:17:15.100Z,12.57
2019-03-19T05:19:47.861Z,16.10
2019-03-19T05:22:18.989Z,14.63
2019-03-19T05:24:51.836Z,12.67
2019-03-19T05:27:24.109Z,12.10
2019-03-19T05:29:54.182Z,11.50
2019-03-19T05:32:26.661Z,13.73
2019-03-19T05:34:57.689Z,15.20
2019-03-19T05:37:29.629Z,14.10
2019-03-19T05:39:59.749Z,14.17
2019-03-19T05:42:32.739Z,12.67
2019-03-19T05:45:02.606Z,12.40
2019-03-19T05:47:38.189Z,12.00
2019-03-19T05:50:07.359Z,12.47
2019-03-19T05:52:37.431Z,11.60
2019-03-19T05:55:15.611Z,11.97
2019-03-19T05:57:49.751Z,12.20
2019-03-19T06:00:20.693Z,10.60
2019-03-19T06:02:50.460Z,11.70
2019-03-19T06:05:23.418Z,12.07
2019-03-19T06:07:54.765Z,11.70
2019-03-19T06:10:26.140Z,9.97
2019-03-19T06:12:56.314Z,10.03
2019-03-19T06:15:29.689Z,12.00
2019-03-19T06:17:59.521Z,10.60
2019-03-19T06:20:31.373Z,11.30
2019-03-19T06:23:01.536Z,14.17
2019-03-19T06:25:31.669Z,14.10
2019-03-19T06:28:03.394Z,13.63
2019-03-19T06:30:37.551Z,13.20
2019-03-19T06:33:09.028Z,11.93
2019-03-19T06:35:40.235Z,11.80
2019-03-19T06:38:13.514Z,11.33
2019-03-19T06:40:43.634Z,12.77
2019-03-19T06:43:13.648Z,11.80
2019-03-19T06:45:47.743Z,12.80
2019-03-19T06:48:21.408Z,15.60
2019-03-19T06:50:51.548Z,12.17
2019-03-19T06:53:22.790Z,10.30
2019-03-19T06:55:53.980Z,10.90
2019-03-19T06:58:24.092Z,12.20
2019-03-19T07:00:55.896Z,11.73
2019-03-19T07:03:27.084Z,13.47
2019-03-19T07:05:58.832Z,10.93
2019-03-19T07:08:30.102Z,10.40
2019-03-19T07:11:02.761Z,9.60
2019-03-19T07:13:34.405Z,7.50
2019-03-19T07:16:04.504Z,7.73
2019-03-19T07:18:39.229Z,8.07
2019-03-19T07:21:09.321Z,8.37
2019-03-19T07:23:43.377Z,8.80
2019-03-19T07:26:13.474Z,7.20
2019-03-19T07:28:44.503Z,6.80
2019-03-19T07:31:16.132Z,7.37
2019-03-19T07:33:47.570Z,8.30
2019-03-19T07:36:17.731Z,8.37
2019-03-19T07:38:52.177Z,8.30
2019-03-19T07:41:23.518Z,6.90
2019-03-19T07:43:57.804Z,14.77
2019-03-19T07:46:29.487Z,10.43
2019-03-19T07:49:01.976Z,9.00
2019-03-19T07:51:32.079Z,10.27
2019-03-19T07:54:02.301Z,9.80
2019-03-19T07:56:34.079Z,7.67
2019-03-19T07:59:04.201Z,15.30
2019-03-19T08:01:35.591Z,8.10
2019-03-19T08:04:07.131Z,9.50
2019-03-19T08:06:38.262Z,8.53
2019-03-19T08:09:11.366Z,8.53
2019-03-19T08:11:47.588Z,6.90
2019-03-19T08:14:21.637Z,7.90
2019-03-19T08:16:56.495Z,8.30
2019-03-19T08:19:27.680Z,12.47
2019-03-19T08:21:57.745Z,8.23
2019-03-19T08:24:27.840Z,7.70
2019-03-19T08:27:02.691Z,8.63
2019-03-19T08:29:35.604Z,8.10
2019-03-19T08:32:09.849Z,8.40
2019-03-19T08:34:39.931Z,11.50
2019-03-19T08:37:10.091Z,7.57
2019-03-19T08:39:40.335Z,10.00
2019-03-19T08:42:10.429Z,8.47
2019-03-19T08:44:40.549Z,7.03
2019-03-19T08:47:10.629Z,7.30
2019-03-19T08:49:40.753Z,7.90
2019-03-19T08:52:10.854Z,7.97
2019-03-19T08:54:41.017Z,9.13
2019-03-19T08:57:11.116Z,9.10
2019-03-19T08:59:41.346Z,8.87
2019-03-19T09:02:11.393Z,9.37
2019-03-19T09:04:41.460Z,9.00
2019-03-19T09:07:11.562Z,9.53
2019-03-19T09:09:41.692Z,9.23
2019-03-19T09:12:11.768Z,8.47
2019-03-19T09:14:41.851Z,8.03
2019-03-19T09:17:12.026Z,8.87
2019-03-19T09:19:42.130Z,7.37
2019-03-19T09:22:12.210Z,7.73
2019-03-19T09:24:42.292Z,8.43
2019-03-19T09:27:12.397Z,7.30
2019-03-19T09:29:42.393Z,7.40
2019-03-19T09:32:12.503Z,7.97
2019-03-19T09:34:42.586Z,8.10
2019-03-19T09:37:12.654Z,8.43
2019-03-19T09:39:42.754Z,7.73
2019-03-19T09:42:12.834Z,7.20
2019-03-19T09:44:42.952Z,9.30
2019-03-19T09:47:14.825Z,8.13
2019-03-19T09:49:44.870Z,9.20
2019-03-19T09:52:14.963Z,8.80
2019-03-19T09:54:45.077Z,8.87
2019-03-19T09:57:15.182Z,8.93
2019-03-19T09:59:45.340Z,7.63
2019-03-19T10:02:15.423Z,7.20
2019-03-19T10:04:45.609Z,5.33
2019-03-19T10:07:15.701Z,6.90
2019-03-19T10:09:45.847Z,9.57
2019-03-19T10:12:15.972Z,9.90
2019-03-19T10:14:46.091Z,10.60
2019-03-19T10:17:16.113Z,9.60
2019-03-19T10:19:47.381Z,9.60
2019-03-19T10:22:17.381Z,9.53
2019-03-19T10:24:47.499Z,9.43
2019-03-19T10:27:19.571Z,9.70
2019-03-19T10:29:49.382Z,7.90
2019-03-19T10:32:19.536Z,9.73
2019-03-19T10:34:49.627Z,10.07
2019-03-19T10:37:19.724Z,7.83
2019-03-19T10:39:49.905Z,8.30
2019-03-19T10:42:20.000Z,7.97
2019-03-19T10:44:50.176Z,6.37
2019-03-19T10:47:20.317Z,9.00
2019-03-19T10:49:50.417Z,8.20
2019-03-19T10:52:39.529Z,8.13
2019-03-19T10:55:15.088Z,7.10
2019-03-19T10:57:45.285Z,6.62
2019-03-19T11:00:20.723Z,7.60
2019-03-19T11:02:51.214Z,7.10
2019-03-19T11:05:21.539Z,6.33
2019-03-19T11:07:51.928Z,5.87
2019-03-19T11:10:22.298Z,5.93
2019-03-19T11:12:52.480Z,5.63
2019-03-19T11:15:22.630Z,5.43
2019-03-19T11:17:52.738Z,6.10
2019-03-19T11:20:22.910Z,5.60
2019-03-19T11:22:52.982Z,6.60
2019-03-19T11:25:23.206Z,6.10
2019-03-19T11:27:53.343Z,5.80
2019-03-19T11:30:24.924Z,5.67
2019-03-19T11:32:55.090Z,6.20
2019-03-19T11:35:25.319Z,7.07
2019-03-19T11:37:55.358Z,6.80
2019-03-19T11:40:26.252Z,7.20
2019-03-19T11:42:56.442Z,6.40
2019-03-19T11:45:26.519Z,7.10
2019-03-19T11:47:56.514Z,6.13
2019-03-19T11:50:26.613Z,5.40
2019-03-19T11:52:56.815Z,6.03
2019-03-19T11:55:27.071Z,5.83
2019-03-19T11:57:57.688Z,6.93
2019-03-19T12:00:40.318Z,7.30
2019-03-19T12:03:15.561Z,8.53
2019-03-19T12:05:42.081Z,7.23
2019-03-19T12:08:12.166Z,7.97
2019-03-19T12:10:42.342Z,7.43
2019-03-19T12:13:12.340Z,6.90
2019-03-19T12:15:42.757Z,5.60
2019-03-19T12:18:12.895Z,6.60
2019-03-19T12:20:42.984Z,6.13
2019-03-19T12:23:13.071Z,5.10
2019-03-19T12:25:43.163Z,4.00
2019-03-19T12:28:16.304Z,3.57
2019-03-19T12:30:46.439Z,4.20
2019-03-19T12:33:16.533Z,4.00
2019-03-19T12:35:46.546Z,4.10
2019-03-19T12:38:16.669Z,4.40
2019-03-19T12:40:46.821Z,5.30
2019-03-19T12:43:18.510Z,4.80
2019-03-19T12:45:48.540Z,5.13
2019-03-19T12:48:19.901Z,5.63
2019-03-19T12:50:50.000Z,5.37
2019-03-19T12:53:20.158Z,5.10
2019-03-19T12:55:52.232Z,6.50
2019-03-19T12:58:23.762Z,6.43
2019-03-19T13:00:55.261Z,6.90
2019-03-19T13:03:28.679Z,6.97
2019-03-19T13:05:59.875Z,7.70
2019-03-19T13:08:42.911Z,8.57
2019-03-19T13:11:13.067Z,8.40
2019-03-19T13:13:44.869Z,5.60
2019-03-19T13:16:15.051Z,5.40
2019-03-19T13:18:48.558Z,4.80
2019-03-19T13:21:23.614Z,5.10
2019-03-19T13:23:56.837Z,5.30
2019-03-19T13:26:28.821Z,5.03
2019-03-19T13:28:58.959Z,5.00
2019-03-19T13:31:32.101Z,5.87
2019-03-19T13:34:01.875Z,5.57
2019-03-19T13:36:36.554Z,5.23
2019-03-19T13:39:08.391Z,5.33
2019-03-19T13:41:42.040Z,6.13
2019-03-19T13:44:12.585Z,6.10
2019-03-19T13:46:44.802Z,5.97
2019-03-19T13:49:15.941Z,6.30
2019-03-19T13:51:47.080Z,6.30
2019-03-19T13:54:18.523Z,6.60
2019-03-19T13:56:49.688Z,7.60
2019-03-19T13:59:19.805Z,7.03
2019-03-19T14:01:49.850Z,7.33
2019-03-19T14:04:21.126Z,7.53
2019-03-19T14:06:51.418Z,6.87
2019-03-19T14:09:21.607Z,6.60
2019-03-19T14:11:51.624Z,6.50
2019-03-19T14:14:21.728Z,6.20
2019-03-19T14:16:51.803Z,6.57
2019-03-19T14:19:21.931Z,6.53
2019-03-19T14:21:52.040Z,6.83
2019-03-19T14:24:22.138Z,6.50
2019-03-19T14:26:53.951Z,6.73
2019-03-19T14:29:24.118Z,6.27
2019-03-19T14:31:54.208Z,6.70
2019-03-19T14:34:24.386Z,7.37
2019-03-19T14:36:54.532Z,7.70
2019-03-19T14:39:24.701Z,6.80
2019-03-19T14:41:54.788Z,6.73
2019-03-19T14:44:25.782Z,7.07
2019-03-19T14:46:56.362Z,7.30
2019-03-19T14:49:26.473Z,5.30
2019-03-19T14:51:56.639Z,5.77
2019-03-19T14:54:26.748Z,5.20
2019-03-19T14:56:56.900Z,4.60
2019-03-19T14:59:27.023Z,4.90
2019-03-19T15:01:58.821Z,5.47
2019-03-19T15:04:29.017Z,4.43
2019-03-19T15:06:59.139Z,4.33
2019-03-19T15:09:29.339Z,4.10
2019-03-19T15:11:59.553Z,4.63
2019-03-19T15:14:31.227Z,4.63
2019-03-19T15:17:05.161Z,5.30
2019-03-19T15:19:33.025Z,6.03
2019-03-19T15:22:03.149Z,5.83
2019-03-19T15:24:33.245Z,8.07
2019-03-19T15:27:03.264Z,6.93
2019-03-19T15:29:33.450Z,7.57
2019-03-19T15:32:03.740Z,7.63
2019-03-19T15:34:33.979Z,7.37
2019-03-19T15:37:04.092Z,8.30
2019-03-19T15:39:34.178Z,8.30
2019-03-19T15:42:04.305Z,7.73
2019-03-19T15:44:34.412Z,8.10
2019-03-19T15:47:04.498Z,7.87
2019-03-19T15:49:38.430Z,8.93
2019-03-19T15:52:08.885Z,8.27
2019-03-19T15:54:38.979Z,8.20
2019-03-19T15:57:09.156Z,7.97
2019-03-19T15:59:39.170Z,7.93
2019-03-19T16:02:09.272Z,7.70
2019-03-19T16:04:39.380Z,7.80
2019-03-19T16:07:09.472Z,9.20
2019-03-19T16:09:39.604Z,8.77
2019-03-19T16:12:09.795Z,8.30
2019-03-19T16:14:39.913Z,9.10
2019-03-19T16:17:10.098Z,9.93
2019-03-19T16:19:43.259Z,8.30
2019-03-19T16:22:14.829Z,9.80
2019-03-19T16:24:46.545Z,10.03
2019-03-19T16:27:16.640Z,9.27
2019-03-19T16:29:46.862Z,10.20
2019-03-19T16:32:19.450Z,12.20
2019-03-19T16:34:52.951Z,8.90
2019-03-19T16:37:24.351Z,8.83
2019-03-19T16:39:56.873Z,8.90
2019-03-19T16:42:25.556Z,9.00
2019-03-19T16:44:56.831Z,7.93
2019-03-19T16:47:26.950Z,8.40
2019-03-19T16:49:58.223Z,9.10
2019-03-19T16:52:29.785Z,9.70
2019-03-19T16:55:00.927Z,9.70
2019-03-19T16:57:31.032Z,12.30
2019-03-19T17:00:01.135Z,10.40
2019-03-19T17:02:31.238Z,9.30
2019-03-19T17:05:03.387Z,18.70
2019-03-19T17:07:37.413Z,9.90
2019-03-19T17:10:10.663Z,8.40
2019-03-19T17:12:43.196Z,9.57
2019-03-19T17:15:13.151Z,9.63
2019-03-19T17:17:44.490Z,9.03
2019-03-19T17:20:16.781Z,9.00
2019-03-19T17:22:53.168Z,9.70
2019-03-19T17:25:22.530Z,10.93
2019-03-19T17:27:53.774Z,12.67
2019-03-19T17:30:24.577Z,13.00
2019-03-19T17:32:55.986Z,12.27
2019-03-19T17:35:26.116Z,14.10
2019-03-19T17:37:59.421Z,12.83
2019-03-19T17:40:40.608Z,35.23
2019-03-19T17:43:04.253Z,17.80
2019-03-19T17:45:34.342Z,14.30
2019-03-19T17:48:15.782Z,11.77
2019-03-19T17:50:44.117Z,20.37
2019-03-19T17:53:14.201Z,13.77
2019-03-19T17:55:44.238Z,10.17
2019-03-19T17:58:14.799Z,10.13
2019-03-19T18:00:46.786Z,10.13
2019-03-19T18:03:16.867Z,11.17
2019-03-19T18:05:46.899Z,11.40
2019-03-19T18:08:18.497Z,12.47
2019-03-19T18:10:48.565Z,12.80
2019-03-19T18:13:18.601Z,14.73
2019-03-19T18:15:48.764Z,12.33
2019-03-19T18:18:18.855Z,11.63
2019-03-19T18:20:50.704Z,11.93
2019-03-19T18:23:23.803Z,13.80
2019-03-19T18:25:53.937Z,16.20
2019-03-19T18:28:24.022Z,13.33
2019-03-19T18:30:54.108Z,14.43
2019-03-19T18:33:24.189Z,13.90
2019-03-19T18:35:56.454Z,14.60
2019-03-19T18:38:26.020Z,15.93
2019-03-19T18:40:56.112Z,15.00
2019-03-19T18:43:28.638Z,15.20
2019-03-19T18:45:59.000Z,15.10
2019-03-19T18:48:29.078Z,15.20
2019-03-19T18:50:59.171Z,16.03
2019-03-19T18:53:29.280Z,15.83
2019-03-19T18:55:59.397Z,16.97
2019-03-19T18:58:29.587Z,16.93
2019-03-19T19:00:59.720Z,17.73
2019-03-19T19:03:29.828Z,17.47
2019-03-19T19:05:59.916Z,18.33
2019-03-19T19:08:30.132Z,18.23
2019-03-19T19:11:00.287Z,17.70
2019-03-19T19:13:33.446Z,18.83
2019-03-19T19:16:06.177Z,17.23
2019-03-19T19:18:36.362Z,16.17
2019-03-19T19:21:09.843Z,16.07
2019-03-19T19:23:39.920Z,15.77
2019-03-19T19:26:10.048Z,16.73
2019-03-19T19:28:40.175Z,19.20
2019-03-19T19:31:10.271Z,18.50
2019-03-19T19:33:40.387Z,15.23
2019-03-19T19:36:10.601Z,22.13
2019-03-19T19:38:40.712Z,18.53
2019-03-19T19:41:10.848Z,16.23
2019-03-19T19:43:41.057Z,17.10
2019-03-19T19:46:11.211Z,17.10
2019-03-19T19:48:41.344Z,18.10
2019-03-19T19:51:14.381Z,19.73
2019-03-19T19:53:44.473Z,14.23
2019-03-19T19:56:17.704Z,12.87
2019-03-19T19:58:47.819Z,15.53
2019-03-19T20:01:17.904Z,14.87
2019-03-19T20:03:48.077Z,12.53
2019-03-19T20:06:18.188Z,10.50
2019-03-19T20:08:48.369Z,11.40
2019-03-19T20:11:18.648Z,12.20
2019-03-19T20:13:48.822Z,12.20
2019-03-19T20:16:20.696Z,15.93
2019-03-19T20:18:50.902Z,14.77
2019-03-19T20:21:21.035Z,14.87
2019-03-19T20:23:51.130Z,15.47
2019-03-19T20:26:21.277Z,14.77
2019-03-19T20:28:51.372Z,15.90
2019-03-19T20:31:21.459Z,15.87
2019-03-19T20:33:51.590Z,19.73
2019-03-19T20:36:21.661Z,16.90
2019-03-19T20:38:51.821Z,17.53
2019-03-19T20:41:21.828Z,16.20
2019-03-19T20:43:52.028Z,17.37
2019-03-19T20:46:22.132Z,18.27
2019-03-19T20:48:52.245Z,18.80
2019-03-19T20:51:22.356Z,18.07
2019-03-19T20:53:52.484Z,19.10
2019-03-19T20:56:22.646Z,23.90
2019-03-19T20:58:52.814Z,24.77
2019-03-19T21:01:22.824Z,18.43
2019-03-19T21:03:52.921Z,20.60
2019-03-19T21:06:22.980Z,21.30
2019-03-19T21:08:53.084Z,19.83
2019-03-19T21:11:23.129Z,19.60
2019-03-19T21:13:53.148Z,21.80
2019-03-19T21:16:23.262Z,22.40
2019-03-19T21:18:53.431Z,21.80
2019-03-19T21:21:26.738Z,20.87
2019-03-19T21:23:56.858Z,18.57
2019-03-19T21:26:26.889Z,19.13
2019-03-19T21:28:56.931Z,19.27
2019-03-19T21:31:26.971Z,19.43
2019-03-19T21:33:56.997Z,18.90
2019-03-19T21:36:27.103Z,19.60
2019-03-19T21:38:57.212Z,20.90
2019-03-19T21:41:27.223Z,22.00
2019-03-19T21:43:57.490Z,19.27
2019-03-19T21:46:27.593Z,19.30
2019-03-19T21:48:57.609Z,18.90
2019-03-19T21:51:27.776Z,20.63
2019-03-19T21:53:57.772Z,20.80
2019-03-19T21:56:29.674Z,20.30
2019-03-19T21:58:59.707Z,19.57
2019-03-19T22:01:29.877Z,20.73
2019-03-19T22:04:03.268Z,21.40
2019-03-19T22:06:31.887Z,21.47
2019-03-19T22:09:04.345Z,20.83
2019-03-19T22:11:33.720Z,22.83
2019-03-19T22:14:03.727Z,21.00
2019-03-19T22:16:36.845Z,21.00
2019-03-19T22:19:09.721Z,20.67
2019-03-19T22:21:41.025Z,21.33
2019-03-19T22:24:11.051Z,20.23
2019-03-19T22:26:44.087Z,20.77
2019-03-19T22:29:17.595Z,20.90
2019-03-19T22:31:53.740Z,20.67
2019-03-19T22:34:23.841Z,21.20
2019-03-19T22:36:53.959Z,18.87
2019-03-19T22:39:25.968Z,19.50
2019-03-19T22:41:57.248Z,19.67
2019-03-19T22:44:32.975Z,20.33
2019-03-19T22:47:03.481Z,19.50
2019-03-19T22:49:37.479Z,19.07
2019-03-19T22:52:13.444Z,19.47
2019-03-19T22:54:43.820Z,21.10
2019-03-19T22:57:13.874Z,22.50
2019-03-19T22:59:45.214Z,20.20
2019-03-19T23:05:01.104Z,19.63
2019-03-19T23:07:32.648Z,19.80
2019-03-19T23:10:02.856Z,20.07
2019-03-19T23:12:33.042Z,20.30
2019-03-19T23:15:04.344Z,20.03
2019-03-19T23:17:35.181Z,20.40
2019-03-19T23:20:07.706Z,22.50
2019-03-19T23:22:40.808Z,20.70
2019-03-19T23:25:16.691Z,20.50
2019-03-19T23:27:48.784Z,20.77
2019-03-19T23:30:18.614Z,20.50
2019-03-19T23:32:50.474Z,19.80
2019-03-19T23:35:20.574Z,23.00
2019-03-19T23:37:52.052Z,21.67
2019-03-19T23:40:22.066Z,22.03
2019-03-19T23:42:52.163Z,20.27
2019-03-19T23:45:29.532Z,21.37
2019-03-19T23:47:59.388Z,21.70
2019-03-19T23:50:29.455Z,22.07
2019-03-19T23:53:00.690Z,20.60
2019-03-19T23:55:37.603Z,19.67
2019-03-19T23:58:07.688Z,20.80
